createdAt,value
2023-05-18T00:00:44.930Z,3.50
2023-05-18T00:03:15.153Z,3.70
2023-05-18T00:05:43.877Z,3.63
2023-05-18T00:08:12.353Z,4.00
2023-05-18T00:10:40.718Z,3.50
2023-05-18T00:13:09.689Z,4.00
2023-05-18T00:15:38.149Z,3.40
2023-05-18T00:18:06.988Z,3.40
2023-05-18T00:20:36.914Z,3.27
2023-05-18T00:23:06.201Z,3.93
2023-05-18T00:25:34.683Z,4.53
2023-05-18T00:28:03.108Z,4.37
2023-05-18T00:30:32.032Z,3.27
2023-05-18T00:33:00.740Z,4.43
2023-05-18T00:35:29.606Z,4.23
2023-05-18T00:37:59.611Z,3.93
2023-05-18T00:40:29.273Z,4.07
2023-05-18T00:42:57.726Z,3.57
2023-05-18T00:45:26.743Z,3.87
2023-05-18T00:47:55.208Z,4.10
2023-05-18T00:50:23.757Z,4.33
2023-05-18T00:52:52.458Z,4.07
2023-05-18T00:55:22.420Z,3.90
2023-05-18T00:57:51.808Z,4.33
2023-05-18T01:00:20.735Z,4.17
2023-05-18T01:02:51.291Z,4.13
2023-05-18T01:05:22.230Z,4.77
2023-05-18T01:07:51.529Z,4.20
2023-05-18T01:10:23.130Z,5.73
2023-05-18T01:12:57.645Z,4.87
2023-05-18T01:15:32.622Z,5.60
2023-05-18T01:18:10.538Z,5.40
2023-05-18T01:20:45.816Z,6.00
2023-05-18T01:23:30.509Z,5.90
2023-05-18T01:26:15.442Z,6.47
2023-05-18T01:28:46.518Z,6.97
2023-05-18T01:31:16.222Z,6.60
2023-05-18T01:33:44.939Z,5.93
2023-05-18T01:36:13.403Z,5.77
2023-05-18T01:38:44.135Z,5.50
2023-05-18T01:41:22.502Z,6.67
2023-05-18T01:43:56.924Z,6.13
2023-05-18T01:46:34.204Z,5.90
2023-05-18T01:49:08.052Z,6.27
2023-05-18T01:51:42.957Z,6.00
2023-05-18T01:54:12.585Z,6.20
2023-05-18T01:56:43.624Z,5.73
2023-05-18T01:59:13.156Z,6.27
2023-05-18T02:01:41.499Z,5.90
2023-05-18T02:04:11.005Z,5.60
2023-05-18T02:06:39.686Z,5.47
2023-05-18T02:09:09.122Z,6.23
2023-05-18T02:11:37.603Z,5.77
2023-05-18T02:14:07.246Z,6.00
2023-05-18T02:16:35.813Z,5.70
2023-05-18T02:19:04.739Z,5.17
2023-05-18T02:21:35.565Z,5.43
2023-05-18T02:24:04.034Z,5.70
2023-05-18T02:26:32.473Z,5.60
2023-05-18T02:29:00.965Z,5.67
2023-05-18T02:31:31.338Z,5.60
2023-05-18T02:33:59.992Z,5.50
2023-05-18T02:36:28.402Z,6.53
2023-05-18T02:38:57.297Z,5.63
2023-05-18T02:41:26.631Z,5.77
2023-05-18T02:43:55.024Z,5.97
2023-05-18T02:46:23.515Z,6.10
2023-05-18T02:48:53.247Z,5.70
2023-05-18T02:51:21.850Z,6.67
2023-05-18T02:53:50.351Z,6.40
2023-05-18T02:56:19.100Z,5.80
2023-05-18T02:58:47.901Z,7.63
2023-05-18T03:01:16.841Z,6.90
2023-05-18T03:03:45.432Z,6.57
2023-05-18T03:06:16.108Z,6.80
2023-05-18T03:08:44.647Z,6.43
2023-05-18T03:11:13.337Z,7.23
2023-05-18T03:13:41.766Z,6.73
2023-05-18T03:16:10.330Z,7.53
2023-05-18T03:18:38.787Z,7.10
2023-05-18T03:21:08.127Z,7.67
2023-05-18T03:23:37.736Z,7.30
2023-05-18T03:26:10.748Z,6.47
2023-05-18T03:28:39.582Z,6.97
2023-05-18T03:31:08.122Z,6.00
2023-05-18T03:33:36.635Z,6.30
2023-05-18T03:36:06.238Z,6.60
2023-05-18T03:38:34.914Z,6.60
2023-05-18T03:41:04.713Z,6.30
2023-05-18T03:43:33.219Z,6.40
2023-05-18T03:46:01.700Z,6.27
2023-05-18T03:48:30.273Z,6.40
2023-05-18T03:50:58.818Z,6.80
2023-05-18T03:53:27.356Z,6.40
2023-05-18T03:55:56.953Z,6.90
2023-05-18T03:58:27.474Z,6.20
2023-05-18T04:00:56.305Z,6.47
2023-05-18T04:03:27.323Z,7.80
2023-05-18T04:05:56.176Z,7.50
2023-05-18T04:08:25.475Z,7.13
2023-05-18T04:10:54.081Z,7.13
2023-05-18T04:13:22.594Z,7.53
2023-05-18T04:15:52.668Z,7.57
2023-05-18T04:18:21.342Z,8.00
2023-05-18T04:20:50.708Z,7.37
2023-05-18T04:23:20.052Z,7.63
2023-05-18T04:25:49.380Z,7.70
2023-05-18T04:28:17.917Z,7.73
2023-05-18T04:30:48.036Z,7.30
2023-05-18T04:33:17.796Z,6.83
2023-05-18T04:35:46.537Z,6.90
2023-05-18T04:38:15.103Z,7.37
2023-05-18T04:40:43.774Z,7.17
2023-05-18T04:43:12.296Z,7.33
2023-05-18T04:45:40.746Z,6.87
2023-05-18T04:48:09.375Z,6.20
2023-05-18T04:50:39.155Z,6.97
2023-05-18T04:53:09.138Z,6.80
2023-05-18T04:55:37.565Z,6.47
2023-05-18T04:58:06.157Z,6.80
2023-05-18T05:00:34.935Z,6.90
2023-05-18T05:03:03.546Z,6.80
2023-05-18T05:05:32.247Z,6.27
2023-05-18T05:08:04.710Z,5.87
2023-05-18T05:10:33.531Z,6.20
2023-05-18T05:13:02.295Z,5.90
2023-05-18T05:15:31.453Z,5.90
2023-05-18T05:18:00.432Z,6.00
2023-05-18T05:20:28.985Z,5.87
2023-05-18T05:22:57.608Z,5.90
2023-05-18T05:25:27.459Z,5.77
2023-05-18T05:27:55.790Z,5.30
2023-05-18T05:30:24.444Z,5.50
2023-05-18T05:32:52.949Z,5.37
2023-05-18T05:35:21.352Z,5.40
2023-05-18T05:37:49.765Z,4.73
2023-05-18T05:40:18.713Z,4.70
2023-05-18T05:42:48.410Z,4.73
2023-05-18T05:45:17.038Z,4.20
2023-05-18T05:47:45.538Z,5.10
2023-05-18T05:50:14.304Z,4.47
2023-05-18T05:52:42.766Z,4.40
2023-05-18T05:55:11.197Z,3.70
2023-05-18T05:57:42.682Z,3.90
2023-05-18T06:00:14.334Z,4.23
2023-05-18T06:02:42.854Z,4.03
2023-05-18T06:05:11.566Z,4.70
2023-05-18T06:07:40.041Z,4.40
2023-05-18T06:10:09.264Z,3.57
2023-05-18T06:12:37.668Z,3.80
2023-05-18T06:15:06.661Z,4.20
2023-05-18T06:17:36.313Z,3.93
2023-05-18T06:20:07.012Z,3.90
2023-05-18T06:22:36.379Z,4.00
2023-05-18T06:25:05.319Z,3.80
2023-05-18T06:27:34.181Z,3.90
2023-05-18T06:30:02.887Z,4.30
2023-05-18T06:32:31.539Z,4.30
2023-05-18T06:35:01.470Z,3.83
2023-05-18T06:37:29.860Z,3.80
2023-05-18T06:39:58.685Z,4.37
2023-05-18T06:42:27.332Z,4.60
2023-05-18T06:44:55.842Z,4.47
2023-05-18T06:47:24.410Z,4.17
2023-05-18T06:49:53.156Z,4.20
2023-05-18T06:52:23.533Z,3.57
2023-05-18T06:54:53.475Z,3.50
2023-05-18T06:57:21.937Z,3.57
2023-05-18T06:59:53.724Z,3.40
2023-05-18T07:02:22.333Z,3.70
2023-05-18T07:04:50.922Z,3.57
2023-05-18T07:07:19.367Z,3.27
2023-05-18T07:09:50.227Z,3.43
2023-05-18T07:12:18.650Z,3.13
2023-05-18T07:14:47.198Z,3.20
2023-05-18T07:17:15.609Z,3.07
2023-05-18T07:19:43.964Z,3.33
2023-05-18T07:22:12.454Z,3.00
2023-05-18T07:24:40.897Z,3.47
2023-05-18T07:27:10.638Z,3.00
2023-05-18T07:29:39.194Z,3.37
2023-05-18T07:32:07.606Z,3.00
2023-05-18T07:34:36.036Z,2.77
2023-05-18T07:37:05.187Z,3.13
2023-05-18T07:39:33.624Z,3.27
2023-05-18T07:42:02.743Z,2.63
2023-05-18T07:44:32.458Z,3.20
2023-05-18T07:47:01.448Z,3.70
2023-05-18T07:49:30.086Z,3.00
2023-05-18T07:51:59.383Z,3.60
2023-05-18T07:54:27.839Z,3.77
2023-05-18T07:56:58.050Z,3.47
2023-05-18T07:59:28.311Z,3.23
2023-05-18T08:01:59.128Z,3.30
2023-05-18T08:04:27.856Z,3.50
2023-05-18T08:07:00.162Z,3.93
2023-05-18T08:09:28.770Z,4.17
2023-05-18T08:11:57.308Z,4.27
2023-05-18T08:14:25.979Z,3.20
2023-05-18T08:16:54.357Z,3.33
2023-05-18T08:19:24.332Z,3.20
2023-05-18T08:21:52.857Z,3.17
2023-05-18T08:24:21.328Z,3.53
2023-05-18T08:26:49.810Z,3.23
2023-05-18T08:29:18.409Z,3.33
2023-05-18T08:31:49.227Z,3.37
2023-05-18T08:34:18.634Z,3.40
2023-05-18T08:36:48.190Z,3.20
2023-05-18T08:39:16.676Z,3.50
2023-05-18T08:41:51.727Z,3.07
2023-05-18T08:44:23.346Z,3.87
2023-05-18T08:46:52.983Z,3.37
2023-05-18T08:49:22.572Z,3.40
2023-05-18T08:51:57.676Z,2.90
2023-05-18T08:54:26.166Z,2.90
2023-05-18T08:56:55.225Z,3.30
2023-05-18T08:59:26.717Z,3.53
2023-05-18T09:01:55.558Z,3.00
2023-05-18T09:04:24.904Z,2.80
2023-05-18T09:06:56.467Z,3.38
2023-05-18T09:09:26.751Z,3.33
2023-05-18T09:11:57.337Z,3.38
2023-05-18T09:14:27.367Z,3.73
2023-05-18T09:16:56.012Z,3.90
2023-05-18T09:19:25.209Z,3.30
2023-05-18T09:21:54.989Z,3.25
2023-05-18T09:24:24.896Z,3.20
2023-05-18T09:26:53.998Z,3.40
2023-05-18T09:29:24.253Z,3.42
2023-05-18T09:31:54.304Z,2.93
2023-05-18T09:34:24.524Z,4.03
2023-05-18T09:36:57.104Z,3.30
2023-05-18T09:39:25.919Z,3.47
2023-05-18T09:41:57.971Z,2.92
2023-05-18T09:44:32.731Z,3.30
2023-05-18T09:47:01.491Z,3.53
2023-05-18T09:49:31.935Z,3.00
2023-05-18T09:52:01.802Z,3.13
2023-05-18T09:54:30.433Z,4.05
2023-05-18T09:57:10.468Z,3.85
2023-05-18T09:59:40.041Z,3.80
2023-05-18T10:02:09.047Z,3.83
2023-05-18T10:04:39.261Z,3.10
2023-05-18T10:07:13.509Z,3.75
2023-05-18T10:09:42.608Z,3.15
2023-05-18T10:12:14.966Z,3.28
2023-05-18T10:14:44.498Z,2.63
2023-05-18T10:17:16.736Z,3.80
2023-05-18T10:19:46.438Z,3.38
2023-05-18T10:22:18.516Z,4.43
2023-05-18T10:24:51.545Z,3.42
2023-05-18T10:27:26.557Z,3.67
2023-05-18T10:29:55.781Z,3.70
2023-05-18T10:32:26.451Z,4.20
2023-05-18T10:34:56.333Z,3.97
2023-05-18T10:37:30.703Z,3.92
2023-05-18T10:40:01.058Z,2.90
2023-05-18T10:42:31.288Z,3.47
2023-05-18T10:45:01.815Z,3.80
2023-05-18T10:47:32.123Z,3.50
2023-05-18T10:50:02.235Z,3.43
2023-05-18T10:52:34.790Z,3.67
2023-05-18T10:55:04.647Z,3.70
2023-05-18T10:57:37.999Z,3.87
2023-05-18T11:00:09.292Z,3.15
2023-05-18T11:02:42.626Z,3.30
2023-05-18T11:05:11.968Z,3.60
2023-05-18T11:07:41.805Z,3.97
2023-05-18T11:10:12.222Z,3.90
2023-05-18T11:12:43.110Z,4.07
2023-05-18T11:15:11.914Z,3.73
2023-05-18T11:17:40.361Z,3.50
2023-05-18T11:20:17.284Z,4.10
2023-05-18T11:22:52.507Z,3.70
2023-05-18T11:25:44.101Z,3.60
2023-05-18T11:28:14.746Z,4.00
2023-05-18T11:30:53.097Z,4.33
2023-05-18T11:33:27.033Z,3.87
2023-05-18T11:35:56.832Z,4.50
2023-05-18T11:38:52.943Z,4.40
2023-05-18T11:41:32.774Z,3.90
2023-05-18T11:44:16.187Z,4.80
2023-05-18T11:46:55.279Z,4.30
2023-05-18T11:49:25.400Z,4.57
2023-05-18T11:52:03.358Z,4.90
2023-05-18T11:54:41.054Z,4.10
2023-05-18T11:57:10.965Z,4.85
2023-05-18T11:59:40.962Z,5.87
2023-05-18T12:02:11.793Z,5.40
2023-05-18T12:04:48.058Z,4.80
2023-05-18T12:07:16.851Z,5.50
2023-05-18T12:09:47.285Z,5.30
2023-05-18T12:12:20.135Z,5.60
2023-05-18T12:14:56.717Z,5.20
2023-05-18T12:17:25.664Z,6.20
2023-05-18T12:19:54.539Z,5.23
2023-05-18T12:22:23.190Z,5.57
2023-05-18T12:24:53.786Z,5.33
2023-05-18T12:27:26.461Z,5.20
2023-05-18T12:29:55.572Z,5.83
2023-05-18T12:32:24.140Z,5.03
2023-05-18T12:34:52.711Z,5.83
2023-05-18T12:37:33.716Z,6.10
2023-05-18T12:40:09.328Z,4.87
2023-05-18T12:42:38.565Z,5.68
2023-05-18T12:45:09.458Z,5.43
2023-05-18T12:47:43.707Z,5.67
2023-05-18T12:50:12.583Z,5.70
2023-05-18T12:52:41.998Z,5.17
2023-05-18T12:55:21.715Z,5.93
2023-05-18T12:58:00.882Z,5.73
2023-05-18T13:00:32.892Z,5.60
2023-05-18T13:03:08.524Z,5.80
2023-05-18T13:05:38.797Z,5.87
2023-05-18T13:08:07.301Z,6.18
2023-05-18T13:10:37.242Z,5.77
2023-05-18T13:13:05.818Z,5.93
2023-05-18T13:15:36.496Z,5.90
2023-05-18T13:18:07.100Z,5.90
2023-05-18T13:20:37.812Z,6.13
2023-05-18T13:23:08.891Z,5.20
2023-05-18T13:25:38.854Z,5.83
2023-05-18T13:28:07.678Z,5.30
2023-05-18T13:30:36.291Z,6.77
2023-05-18T13:33:04.964Z,6.70
2023-05-18T13:35:33.808Z,6.63
2023-05-18T13:38:02.653Z,5.97
2023-05-18T13:40:32.013Z,5.47
2023-05-18T13:43:01.808Z,5.47
2023-05-18T13:45:31.041Z,6.03
2023-05-18T13:47:59.859Z,6.90
2023-05-18T13:50:28.796Z,5.40
2023-05-18T13:52:57.371Z,5.87
2023-05-18T13:55:25.781Z,6.10
2023-05-18T13:57:54.203Z,6.30
2023-05-18T14:00:24.034Z,5.20
2023-05-18T14:02:53.242Z,5.88
2023-05-18T14:05:22.287Z,5.57
2023-05-18T14:07:52.397Z,5.17
2023-05-18T14:10:21.470Z,5.37
2023-05-18T14:12:50.034Z,5.63
2023-05-18T14:15:18.682Z,5.93
2023-05-18T14:17:48.345Z,5.00
2023-05-18T14:20:17.040Z,6.10
2023-05-18T14:22:45.466Z,5.50
2023-05-18T14:25:13.919Z,5.30
2023-05-18T14:27:42.404Z,5.67
2023-05-18T14:30:11.355Z,5.63
2023-05-18T14:32:39.810Z,5.40
2023-05-18T14:35:10.152Z,5.80
2023-05-18T14:37:38.730Z,5.83
2023-05-18T14:40:08.469Z,6.50
2023-05-18T14:42:37.552Z,5.50
2023-05-18T14:45:06.401Z,6.13
2023-05-18T14:47:34.826Z,5.87
2023-05-18T14:50:03.359Z,5.20
2023-05-18T14:52:33.025Z,5.80
2023-05-18T14:55:01.542Z,5.17
2023-05-18T14:57:29.938Z,5.23
2023-05-18T14:59:58.711Z,5.03
2023-05-18T15:02:27.249Z,5.17
2023-05-18T15:04:55.772Z,5.10
2023-05-18T15:07:24.464Z,5.30
2023-05-18T15:09:55.625Z,5.33
2023-05-18T15:12:24.481Z,5.93
2023-05-18T15:14:53.291Z,5.47
2023-05-18T15:17:22.010Z,6.07
2023-05-18T15:19:50.536Z,6.27
2023-05-18T15:22:19.016Z,5.03
2023-05-18T15:24:47.730Z,5.57
2023-05-18T15:27:17.439Z,6.33
2023-05-18T15:29:46.738Z,5.57
2023-05-18T15:32:15.283Z,4.80
2023-05-18T15:34:43.764Z,5.07
2023-05-18T15:37:12.268Z,5.50
2023-05-18T15:39:41.217Z,5.50
2023-05-18T15:42:09.828Z,5.23
2023-05-18T15:44:39.679Z,5.30
2023-05-18T15:47:08.246Z,5.30
2023-05-18T15:49:36.969Z,5.17
2023-05-18T15:52:05.685Z,5.40
2023-05-18T15:54:34.446Z,5.63
2023-05-18T15:57:02.871Z,4.97
2023-05-18T15:59:31.288Z,5.07
2023-05-18T16:02:01.352Z,5.43
2023-05-18T16:04:29.914Z,4.97
2023-05-18T16:06:58.420Z,5.13
2023-05-18T16:09:26.806Z,5.27
2023-05-18T16:11:55.411Z,5.57
2023-05-18T16:14:24.370Z,5.90
2023-05-18T16:16:52.950Z,5.55
2023-05-18T16:19:22.991Z,4.90
2023-05-18T16:21:51.525Z,4.67
2023-05-18T16:24:20.037Z,5.13
2023-05-18T16:26:48.575Z,4.77
2023-05-18T16:29:17.348Z,4.83
2023-05-18T16:31:45.744Z,4.82
2023-05-18T16:34:14.330Z,5.55
2023-05-18T16:36:43.939Z,4.83
2023-05-18T16:39:12.594Z,5.00
2023-05-18T16:41:41.073Z,5.68
2023-05-18T16:44:09.591Z,5.50
2023-05-18T16:46:38.037Z,5.30
2023-05-18T16:49:06.597Z,4.97
2023-05-18T16:51:35.154Z,5.63
2023-05-18T16:54:06.207Z,5.53
2023-05-18T16:56:35.844Z,5.32
2023-05-18T16:59:04.876Z,4.90
2023-05-18T17:01:34.146Z,5.17
2023-05-18T17:04:02.755Z,4.77
2023-05-18T17:06:31.432Z,5.55
2023-05-18T17:08:59.953Z,5.53
2023-05-18T17:11:30.219Z,4.87
2023-05-18T17:14:00.032Z,5.03
2023-05-18T17:16:30.151Z,4.80
2023-05-18T17:18:58.812Z,5.03
2023-05-18T17:21:28.461Z,4.75
2023-05-18T17:23:57.288Z,4.73
2023-05-18T17:26:30.554Z,5.20
2023-05-18T17:29:00.478Z,5.37
2023-05-18T17:31:29.065Z,5.13
2023-05-18T17:33:57.718Z,4.80
2023-05-18T17:36:26.622Z,5.50
2023-05-18T17:38:56.194Z,5.60
2023-05-18T17:41:25.925Z,5.33
2023-05-18T17:43:54.985Z,5.80
2023-05-18T17:46:24.748Z,5.40
2023-05-18T17:48:53.384Z,4.97
2023-05-18T17:51:23.036Z,4.93
2023-05-18T17:53:51.357Z,6.17
2023-05-18T17:56:20.167Z,5.97
2023-05-18T17:58:48.871Z,4.60
2023-05-18T18:01:17.532Z,4.90
2023-05-18T18:03:48.628Z,5.13
2023-05-18T18:06:22.271Z,5.10
2023-05-18T18:08:50.969Z,4.93
2023-05-18T18:11:19.595Z,5.53
2023-05-18T18:13:48.211Z,4.83
2023-05-18T18:16:17.162Z,5.30
2023-05-18T18:18:47.375Z,4.97
2023-05-18T18:21:16.238Z,4.67
2023-05-18T18:23:45.158Z,5.57
2023-05-18T18:26:13.578Z,5.13
2023-05-18T18:28:42.302Z,4.73
2023-05-18T18:31:11.262Z,5.30
2023-05-18T18:33:39.755Z,5.03
2023-05-18T18:36:09.810Z,5.50
2023-05-18T18:38:38.241Z,5.00
2023-05-18T18:41:06.874Z,5.23
2023-05-18T18:43:38.701Z,5.73
2023-05-18T18:46:07.213Z,5.77
2023-05-18T18:48:35.933Z,4.80
2023-05-18T18:51:04.545Z,6.03
2023-05-18T18:53:34.222Z,5.80
2023-05-18T18:56:02.766Z,5.90
2023-05-18T18:58:31.340Z,5.33
2023-05-18T19:01:00.250Z,5.17
2023-05-18T19:03:29.295Z,5.00
2023-05-18T19:05:57.811Z,5.50
2023-05-18T19:08:26.171Z,6.13
2023-05-18T19:10:56.695Z,5.60
2023-05-18T19:13:25.335Z,5.43
2023-05-18T19:15:53.794Z,5.10
2023-05-18T19:18:22.322Z,5.67
2023-05-18T19:20:51.037Z,5.73
2023-05-18T19:23:19.545Z,5.87
2023-05-18T19:25:48.054Z,5.40
2023-05-18T19:28:17.893Z,5.20
2023-05-18T19:30:47.994Z,5.60
2023-05-18T19:33:16.533Z,6.03
2023-05-18T19:35:45.555Z,7.00
2023-05-18T19:38:13.987Z,5.63
2023-05-18T19:40:42.888Z,5.07
2023-05-18T19:43:11.533Z,5.63
2023-05-18T19:45:41.460Z,6.10
2023-05-18T19:48:09.879Z,5.10
2023-05-18T19:50:38.678Z,5.13
2023-05-18T19:53:07.099Z,5.03
2023-05-18T19:55:35.687Z,5.77
2023-05-18T19:58:04.225Z,5.63
2023-05-18T20:00:33.386Z,6.00
2023-05-18T20:03:03.930Z,5.37
2023-05-18T20:05:33.485Z,5.73
2023-05-18T20:08:02.975Z,6.63
2023-05-18T20:10:31.777Z,6.20
2023-05-18T20:13:00.330Z,6.57
2023-05-18T20:15:30.032Z,6.40
2023-05-18T20:17:58.490Z,6.20
2023-05-18T20:20:30.880Z,6.03
2023-05-18T20:22:59.661Z,5.53
2023-05-18T20:25:28.640Z,6.63
2023-05-18T20:28:00.737Z,6.20
2023-05-18T20:30:29.543Z,6.20
2023-05-18T20:32:59.342Z,5.97
2023-05-18T20:35:29.407Z,6.87
2023-05-18T20:37:59.742Z,6.47
2023-05-18T20:40:31.029Z,6.80
2023-05-18T20:43:00.852Z,6.60
2023-05-18T20:45:29.872Z,6.63
2023-05-18T20:48:00.092Z,6.50
2023-05-18T20:50:30.229Z,6.37
2023-05-18T20:52:58.835Z,6.37
2023-05-18T20:55:27.655Z,6.83
2023-05-18T20:57:56.080Z,7.00
2023-05-18T21:00:25.077Z,7.23
2023-05-18T21:02:53.809Z,8.07
2023-05-18T21:05:24.738Z,7.47
2023-05-18T21:07:54.635Z,7.40
2023-05-18T21:10:23.442Z,7.63
2023-05-18T21:12:51.870Z,7.17
2023-05-18T21:15:20.316Z,7.73
2023-05-18T21:17:48.784Z,7.10
2023-05-18T21:20:17.251Z,7.60
2023-05-18T21:22:45.832Z,8.07
2023-05-18T21:25:15.638Z,8.03
2023-05-18T21:27:44.199Z,8.30
2023-05-18T21:30:13.958Z,7.50
2023-05-18T21:32:43.633Z,7.23
2023-05-18T21:35:12.154Z,7.93
2023-05-18T21:37:40.584Z,8.23
2023-05-18T21:40:10.276Z,8.10
2023-05-18T21:42:45.074Z,8.13
2023-05-18T21:45:13.894Z,8.17
2023-05-18T21:47:42.472Z,8.40
2023-05-18T21:50:11.661Z,8.47
2023-05-18T21:52:40.062Z,8.33
2023-05-18T21:55:09.204Z,8.63
2023-05-18T21:57:38.903Z,8.20
2023-05-18T22:00:08.904Z,8.30
2023-05-18T22:02:37.424Z,8.60
2023-05-18T22:05:06.458Z,8.33
2023-05-18T22:07:35.002Z,8.27
2023-05-18T22:10:03.569Z,8.30
2023-05-18T22:12:32.101Z,8.20
2023-05-18T22:15:01.940Z,9.40
2023-05-18T22:17:30.413Z,7.77
2023-05-18T22:19:59.265Z,7.83
2023-05-18T22:22:30.697Z,9.13
2023-05-18T22:24:59.581Z,9.20
2023-05-18T22:27:28.125Z,7.87
2023-05-18T22:29:57.607Z,8.93
2023-05-18T22:32:27.722Z,8.37
2023-05-18T22:34:56.231Z,8.07
2023-05-18T22:37:24.647Z,9.17
2023-05-18T22:39:53.325Z,8.50
2023-05-18T22:42:22.440Z,8.00
2023-05-18T22:44:51.350Z,8.50
2023-05-18T22:47:23.617Z,8.27
2023-05-18T22:49:53.397Z,8.47
2023-05-18T22:52:22.128Z,8.63
2023-05-18T22:54:51.181Z,7.70
2023-05-18T22:57:19.469Z,7.90
2023-05-18T22:59:48.281Z,8.03
2023-05-18T23:02:16.810Z,8.20
2023-05-18T23:04:45.280Z,9.17
2023-05-18T23:07:14.921Z,8.60
2023-05-18T23:09:43.824Z,10.13
2023-05-18T23:12:12.299Z,8.70
2023-05-18T23:14:40.708Z,9.07
2023-05-18T23:17:09.167Z,10.40
2023-05-18T23:19:39.336Z,9.50
2023-05-18T23:22:07.771Z,9.07
2023-05-18T23:24:37.416Z,9.07
2023-05-18T23:27:06.033Z,9.77
2023-05-18T23:29:34.490Z,9.10
2023-05-18T23:32:03.626Z,8.93
2023-05-18T23:34:32.478Z,9.73
2023-05-18T23:37:04.325Z,10.10
2023-05-18T23:39:34.041Z,10.27
2023-05-18T23:42:04.827Z,10.00
2023-05-18T23:44:33.531Z,9.50
2023-05-18T23:47:02.833Z,10.47
2023-05-18T23:49:31.920Z,11.50
2023-05-18T23:52:03.181Z,11.93
2023-05-18T23:54:32.003Z,10.80
2023-05-18T23:57:00.796Z,11.57
2023-05-18T23:59:32.112Z,11.13
